Powell River, British Columbia

10:21 AM PST on February 14, 2016 (GMT -0800)
Baybrook Comox | | Change Station
CLOSE
Current Station
Personal Weather Station
Location: Comox, BRITISH COLUMBIA
Elevation: 62 ft
Nearby Weather Stations

Elev 62 ft 49.67 °N, 124.91 °W | Updated 12 minutes ago

Fog
Fog
44.8 °F
Feels Like 43 °F
N
3.7
Wind Variable Wind from SSW

Today is forecast to be nearly the same temperature as yesterday.

Today
High -- | Low -- °F
--% Chance of Precip.
Yesterday
High -- | Low -- °F
Precip. -- in
Pressure 30.03 in
Visibility 0.4 miles
Clouds
Windchill 43 °F
Dew Point 43 °F
Humidity 94%
Rainfall 0.04 in
Snow Depth Not available.
7:30 AM 5:34 PM
Waxing Crescent, 44% visible
SPECI CYBL 141804Z 00000KT 3/8SM R12/3500FT/N FG VV001 05/05 A3001 RMK FG8 SLP168
Pressure 30.03 in
Visibility 0.4 miles
Clouds
Windchill 43 °F
Dew Point 43 °F
Humidity 94%
Rainfall 0.04 in
Snow Depth Not available.
7:30 AM 5:34 PM
Waxing Crescent, 44% visible
SPECI CYBL 141804Z 00000KT 3/8SM R12/3500FT/N FG VV001 05/05 A3001 RMK FG8 SLP168

10-Day Weather Forecast

No radar image for this location.
×

Almanac

Astronomy

Feb. 14, 2016 Rise Set
Actual Time
Civil Twilight
Nautical Twilight
Astronomical Twilight
Moon
Length of Visible Light
Length of Day
Tomorrow will be .
, % of the Moon is Illuminated

Today's Extremes

Country Highs Country Lows

Community

WunderPhotos

Upload Photos

1,892,869 photos uploaded!

WunderBlog® & News

Nearby

Air Quality

  Air Quality AQ Index Pollutant
Not available.

Snow Depth

Station Depth Elevation

Earthquake Activity

City Distance Mag. Time & Date
Minimum magnitude displayed is 2.5.

Coastal Water Temperatures

Place Temperature

Stations

Nearby Weather Stations

Station Location Temp. Windchill Dew Point Humidity Wind Precip. Elev Updated Type
                   

Watches & Warnings

There are currently no watches in effect.